createdAt,value
2023-03-16T00:00:44.626Z,-0.19
2023-03-16T00:02:46.097Z,-0.21
2023-03-16T00:04:47.619Z,-0.22
2023-03-16T00:06:49.007Z,-0.21
2023-03-16T00:08:50.457Z,-0.20
2023-03-16T00:10:54.046Z,-0.22
2023-03-16T00:12:56.657Z,-0.24
2023-03-16T00:14:58.031Z,-0.25
2023-03-16T00:16:59.381Z,-0.26
2023-03-16T00:19:03.085Z,-0.27
2023-03-16T00:21:05.869Z,-0.29
2023-03-16T00:23:07.450Z,-0.30
2023-03-16T00:25:14.350Z,-0.29
2023-03-16T00:27:16.014Z,-0.32
2023-03-16T00:29:17.468Z,-0.34
2023-03-16T00:31:19.109Z,-0.38
2023-03-16T00:33:20.810Z,-0.38
2023-03-16T00:35:22.186Z,-0.42
2023-03-16T00:37:25.605Z,-0.43
2023-03-16T00:39:27.051Z,-0.42
2023-03-16T00:41:28.449Z,-0.41
2023-03-16T00:43:31.418Z,-0.41
2023-03-16T00:45:33.076Z,-0.46
2023-03-16T00:47:35.018Z,-0.49
2023-03-16T00:49:36.657Z,-0.50
2023-03-16T00:51:38.070Z,-0.51
2023-03-16T00:53:41.543Z,-0.55
2023-03-16T00:55:43.042Z,-0.54
2023-03-16T00:57:44.857Z,-0.56
2023-03-16T00:59:46.667Z,-0.56
2023-03-16T01:01:48.332Z,-0.56
2023-03-16T01:03:49.714Z,-0.56
2023-03-16T01:05:51.145Z,-0.56
2023-03-16T01:07:52.544Z,-0.52
2023-03-16T01:09:53.941Z,-0.53
2023-03-16T01:11:55.381Z,-0.52
2023-03-16T01:13:56.934Z,-0.51
2023-03-16T01:15:59.736Z,-0.50
2023-03-16T01:18:01.862Z,-0.48
2023-03-16T01:20:08.059Z,-0.49
2023-03-16T01:22:10.485Z,-0.47
2023-03-16T01:24:11.911Z,-0.45
2023-03-16T01:26:15.133Z,-0.43
2023-03-16T01:28:16.527Z,-0.35
2023-03-16T01:30:17.917Z,-0.34
2023-03-16T01:32:19.396Z,-0.38
2023-03-16T01:34:20.844Z,-0.40
2023-03-16T01:36:22.235Z,-0.36
2023-03-16T01:38:24.385Z,-0.32
2023-03-16T01:40:25.970Z,-0.35
2023-03-16T01:42:27.787Z,-0.32
2023-03-16T01:44:32.556Z,-0.31
2023-03-16T01:46:34.415Z,-0.30
2023-03-16T01:48:39.101Z,-0.28
2023-03-16T01:50:42.192Z,-0.27
2023-03-16T01:52:43.673Z,-0.22
2023-03-16T01:55:13.000Z,-0.24
2023-03-16T01:57:30.373Z,-0.25
2023-03-16T01:59:57.800Z,-0.23
2023-03-16T02:02:00.318Z,-0.24
2023-03-16T02:04:33.840Z,-0.23
2023-03-16T02:06:36.967Z,-0.19
2023-03-16T02:08:40.493Z,-0.16
2023-03-16T02:10:43.131Z,-0.15
2023-03-16T02:12:44.965Z,-0.17
2023-03-16T02:14:48.412Z,-0.20
2023-03-16T02:16:50.617Z,-0.21
2023-03-16T02:18:52.065Z,-0.23
2023-03-16T02:21:02.659Z,-0.22
2023-03-16T02:23:07.242Z,-0.24
2023-03-16T02:25:10.435Z,-0.26
2023-03-16T02:27:39.780Z,-0.27
2023-03-16T02:30:02.349Z,-0.21
2023-03-16T02:32:05.499Z,-0.24
2023-03-16T02:34:09.434Z,-0.26
2023-03-16T02:36:12.771Z,-0.26
2023-03-16T02:38:14.252Z,-0.29
2023-03-16T02:40:28.677Z,-0.27
2023-03-16T02:42:30.243Z,-0.24
2023-03-16T02:44:36.375Z,-0.28
2023-03-16T02:46:38.898Z,-0.29
2023-03-16T02:48:48.006Z,-0.28
2023-03-16T02:50:53.265Z,-0.28
2023-03-16T02:52:54.664Z,-0.31
2023-03-16T02:54:56.041Z,-0.30
2023-03-16T02:56:57.671Z,-0.34
2023-03-16T02:58:59.081Z,-0.32
2023-03-16T03:01:01.346Z,-0.36
2023-03-16T03:03:03.420Z,-0.33
2023-03-16T03:05:05.369Z,-0.32
2023-03-16T03:07:06.809Z,-0.33
2023-03-16T03:09:08.799Z,-0.30
2023-03-16T03:11:10.254Z,-0.31
2023-03-16T03:13:13.441Z,-0.25
2023-03-16T03:15:16.597Z,-0.27
2023-03-16T03:17:17.993Z,-0.25
2023-03-16T03:19:19.390Z,-0.25
2023-03-16T03:21:21.702Z,-0.20
2023-03-16T03:23:23.591Z,-0.14
2023-03-16T03:25:25.089Z,-0.10
2023-03-16T03:27:26.493Z,-0.08
2023-03-16T03:29:34.490Z,0.01
2023-03-16T03:31:35.968Z,0.05
2023-03-16T03:33:37.330Z,0.07
2023-03-16T03:35:38.813Z,0.11
2023-03-16T03:37:41.051Z,0.17
2023-03-16T03:39:42.656Z,0.19
2023-03-16T03:41:44.053Z,0.22
2023-03-16T03:43:45.443Z,0.20
2023-03-16T03:45:47.267Z,0.29
2023-03-16T03:47:48.664Z,0.30
2023-03-16T03:49:50.038Z,0.29
2023-03-16T03:51:51.485Z,0.30
2023-03-16T03:53:52.878Z,0.34
2023-03-16T03:55:54.414Z,0.40
2023-03-16T03:57:55.788Z,0.43
2023-03-16T03:59:57.217Z,0.44
2023-03-16T04:01:58.795Z,0.45
2023-03-16T04:04:00.592Z,0.47
2023-03-16T04:06:02.119Z,0.53
2023-03-16T04:08:04.227Z,0.53
2023-03-16T04:10:07.558Z,0.53
2023-03-16T04:12:13.718Z,0.55
2023-03-16T04:14:15.105Z,0.58
2023-03-16T04:16:17.178Z,0.64
2023-03-16T04:18:18.588Z,0.73
2023-03-16T04:20:20.748Z,0.67
2023-03-16T04:22:23.247Z,0.71
2023-03-16T04:24:24.668Z,0.71
2023-03-16T04:26:26.067Z,0.78
2023-03-16T04:28:27.630Z,0.76
2023-03-16T04:30:30.959Z,0.78
2023-03-16T04:32:33.605Z,0.92
2023-03-16T04:34:35.092Z,1.03
2023-03-16T04:36:36.484Z,1.06
2023-03-16T04:38:37.892Z,1.11
2023-03-16T04:40:39.308Z,1.12
2023-03-16T04:42:40.703Z,1.13
2023-03-16T04:44:44.344Z,1.09
2023-03-16T04:46:45.848Z,1.14
2023-03-16T04:48:47.217Z,1.28
2023-03-16T04:50:48.745Z,1.28
2023-03-16T04:52:50.112Z,1.22
2023-03-16T04:54:51.822Z,1.21
2023-03-16T04:56:53.220Z,1.29
2023-03-16T04:58:56.877Z,1.29
2023-03-16T05:00:58.436Z,1.28
2023-03-16T05:02:59.846Z,1.32
2023-03-16T05:05:01.582Z,1.39
2023-03-16T05:07:03.188Z,1.41
2023-03-16T05:09:06.024Z,1.42
2023-03-16T05:11:07.830Z,1.36
2023-03-16T05:13:09.291Z,1.42
2023-03-16T05:15:11.524Z,1.39
2023-03-16T05:17:14.821Z,1.45
2023-03-16T05:19:16.339Z,1.46
2023-03-16T05:21:17.717Z,1.44
2023-03-16T05:23:20.326Z,1.49
2023-03-16T05:25:21.902Z,1.54
2023-03-16T05:27:23.257Z,1.57
2023-03-16T05:29:26.426Z,1.61
2023-03-16T05:31:28.812Z,1.73
2023-03-16T05:33:30.365Z,1.72
2023-03-16T05:35:32.398Z,1.71
2023-03-16T05:37:38.009Z,1.73
2023-03-16T05:39:39.409Z,1.79
2023-03-16T05:41:41.224Z,1.78
2023-03-16T05:43:43.569Z,1.80
2023-03-16T05:45:45.001Z,1.81
2023-03-16T05:47:46.407Z,1.83
2023-03-16T05:49:47.825Z,1.86
2023-03-16T05:51:50.668Z,1.86
2023-03-16T05:53:56.632Z,1.93
2023-03-16T05:55:58.158Z,2.01
2023-03-16T05:57:59.617Z,2.06
2023-03-16T06:00:11.252Z,2.07
2023-03-16T06:02:12.684Z,2.12
2023-03-16T06:04:14.340Z,2.17
2023-03-16T06:06:16.999Z,2.28
2023-03-16T06:08:18.405Z,2.26
2023-03-16T06:10:20.154Z,2.30
2023-03-16T06:12:21.549Z,2.30
2023-03-16T06:14:23.878Z,2.33
2023-03-16T06:16:25.924Z,2.38
2023-03-16T06:18:27.604Z,2.45
2023-03-16T06:20:29.431Z,2.52
2023-03-16T06:22:31.225Z,2.55
2023-03-16T06:24:32.599Z,2.57
2023-03-16T06:26:33.983Z,2.61
2023-03-16T06:28:35.391Z,2.65
2023-03-16T06:30:36.803Z,2.65
2023-03-16T06:32:38.850Z,2.74
2023-03-16T06:34:41.612Z,2.80
2023-03-16T06:36:43.084Z,2.84
2023-03-16T06:38:44.896Z,2.90
2023-03-16T06:40:46.428Z,2.94
2023-03-16T06:42:48.264Z,2.97
2023-03-16T06:44:49.798Z,3.00
2023-03-16T06:46:51.238Z,3.06
2023-03-16T06:48:52.622Z,3.07
2023-03-16T06:50:54.173Z,3.12
2023-03-16T06:52:55.794Z,3.24
2023-03-16T06:54:58.492Z,3.23
2023-03-16T06:56:59.994Z,3.26
2023-03-16T06:59:01.698Z,3.29
2023-03-16T07:01:04.145Z,3.35
2023-03-16T07:03:05.719Z,3.44
2023-03-16T07:05:07.975Z,3.53
2023-03-16T07:07:09.867Z,3.61
2023-03-16T07:09:12.461Z,3.67
2023-03-16T07:11:14.830Z,3.73
2023-03-16T07:13:16.243Z,3.76
2023-03-16T07:15:17.782Z,3.80
2023-03-16T07:17:19.229Z,3.83
2023-03-16T07:19:20.667Z,3.87
2023-03-16T07:21:22.144Z,3.94
2023-03-16T07:23:24.809Z,4.00
2023-03-16T07:25:26.202Z,4.05
2023-03-16T07:27:28.762Z,4.15
2023-03-16T07:29:30.199Z,4.18
2023-03-16T07:31:32.536Z,4.21
2023-03-16T07:33:34.747Z,4.24
2023-03-16T07:35:36.204Z,4.27
2023-03-16T07:37:37.907Z,4.29
2023-03-16T07:39:40.023Z,4.34
2023-03-16T07:41:41.674Z,4.37
2023-03-16T07:43:44.355Z,4.41
2023-03-16T07:45:52.302Z,4.46
2023-03-16T07:47:53.689Z,4.50
2023-03-16T07:49:55.095Z,4.57
2023-03-16T07:51:56.521Z,4.69
2023-03-16T07:53:57.903Z,4.86
2023-03-16T07:55:59.285Z,4.95
2023-03-16T07:58:01.555Z,5.07
2023-03-16T08:00:05.237Z,5.23
2023-03-16T08:02:07.091Z,5.38
2023-03-16T08:04:12.326Z,5.51
2023-03-16T08:06:13.751Z,5.52
2023-03-16T08:08:15.953Z,5.66
2023-03-16T08:10:18.243Z,5.74
2023-03-16T08:12:19.657Z,5.87
2023-03-16T08:14:21.243Z,5.98
2023-03-16T08:16:24.389Z,6.09
2023-03-16T08:18:26.705Z,6.18
2023-03-16T08:20:29.720Z,6.23
2023-03-16T08:22:31.276Z,6.34
2023-03-16T08:24:33.251Z,6.35
2023-03-16T08:26:34.818Z,6.42
2023-03-16T08:28:36.369Z,6.44
2023-03-16T08:30:38.009Z,6.56
2023-03-16T08:32:40.976Z,6.59
2023-03-16T08:34:42.526Z,6.64
2023-03-16T08:36:44.228Z,6.65
2023-03-16T08:39:03.897Z,6.59
2023-03-16T08:41:08.406Z,6.66
2023-03-16T08:43:09.790Z,6.76
2023-03-16T08:45:14.219Z,6.87
2023-03-16T08:47:16.097Z,6.99
2023-03-16T08:49:17.483Z,6.99
2023-03-16T08:51:19.609Z,7.03
2023-03-16T08:53:21.494Z,6.98
2023-03-16T08:55:24.423Z,7.09
2023-03-16T08:57:26.220Z,7.19
2023-03-16T08:59:30.475Z,7.21
2023-03-16T09:01:32.011Z,7.26
2023-03-16T09:03:34.793Z,7.25
2023-03-16T09:05:36.176Z,7.49
2023-03-16T09:07:39.229Z,7.70
2023-03-16T09:09:40.735Z,7.78
2023-03-16T09:11:42.121Z,7.75
2023-03-16T09:13:44.785Z,7.66
2023-03-16T09:15:46.179Z,7.58
2023-03-16T09:17:47.733Z,7.59
2023-03-16T09:19:51.774Z,7.54
2023-03-16T09:21:53.727Z,7.39
2023-03-16T09:23:56.237Z,7.31
2023-03-16T09:25:59.599Z,7.28
2023-03-16T09:28:01.030Z,7.27
2023-03-16T09:30:05.280Z,7.27
2023-03-16T09:32:07.710Z,7.23
2023-03-16T09:34:09.379Z,7.19
2023-03-16T09:36:14.195Z,7.31
2023-03-16T09:38:15.830Z,7.30
2023-03-16T09:40:23.270Z,7.33
2023-03-16T09:42:37.470Z,7.27
2023-03-16T09:45:26.758Z,7.34
2023-03-16T09:47:30.760Z,7.48
2023-03-16T09:49:43.300Z,7.35
2023-03-16T09:52:15.725Z,7.38
2023-03-16T09:54:27.601Z,7.48
2023-03-16T09:56:35.286Z,7.60
2023-03-16T09:58:36.969Z,7.62
2023-03-16T10:00:45.352Z,7.88
2023-03-16T10:03:30.029Z,8.12
2023-03-16T10:05:32.838Z,8.01
2023-03-16T10:08:00.571Z,8.26
2023-03-16T10:10:14.833Z,8.38
2023-03-16T10:12:17.122Z,8.72
2023-03-16T10:14:41.391Z,8.71
2023-03-16T10:17:08.220Z,8.73
2023-03-16T10:19:25.608Z,8.94
2023-03-16T10:21:27.894Z,8.97
2023-03-16T10:23:34.344Z,9.12
2023-03-16T10:25:50.048Z,9.15
2023-03-16T10:27:52.931Z,9.16
2023-03-16T10:29:55.055Z,9.19
2023-03-16T10:32:02.355Z,9.42
2023-03-16T10:34:06.132Z,9.31
2023-03-16T10:36:15.771Z,9.45
2023-03-16T10:38:55.197Z,9.72
2023-03-16T10:40:59.790Z,9.71
2023-03-16T10:43:12.829Z,9.66
2023-03-16T10:45:32.139Z,9.75
2023-03-16T10:47:34.254Z,9.85
2023-03-16T10:49:42.321Z,9.77
2023-03-16T10:51:43.902Z,9.77
2023-03-16T10:53:45.401Z,9.75
2023-03-16T10:55:47.937Z,9.74
2023-03-16T10:57:53.594Z,9.86
2023-03-16T10:59:59.582Z,9.89
2023-03-16T11:02:16.656Z,9.75
2023-03-16T11:04:19.688Z,9.78
2023-03-16T11:06:25.801Z,9.74
2023-03-16T11:08:32.189Z,9.62
2023-03-16T11:10:46.130Z,9.62
2023-03-16T11:12:56.935Z,9.70
2023-03-16T11:15:25.320Z,9.65
2023-03-16T11:17:49.893Z,9.58
2023-03-16T11:19:57.716Z,9.63
2023-03-16T11:22:13.114Z,9.73
2023-03-16T11:25:11.769Z,9.55
2023-03-16T11:27:23.734Z,9.59
2023-03-16T11:29:35.517Z,9.59
2023-03-16T11:31:57.298Z,9.59
2023-03-16T11:33:58.770Z,9.49
2023-03-16T11:36:08.864Z,9.31
2023-03-16T11:38:18.809Z,9.34
2023-03-16T11:40:53.855Z,9.55
2023-03-16T11:43:01.149Z,9.54
2023-03-16T11:45:05.465Z,9.77
2023-03-16T11:47:27.817Z,9.92
2023-03-16T11:49:50.623Z,10.12
2023-03-16T11:52:17.272Z,10.34
2023-03-16T11:54:24.971Z,10.45
2023-03-16T11:56:34.791Z,10.59
2023-03-16T11:58:56.205Z,10.47
2023-03-16T12:01:22.769Z,10.42
2023-03-16T12:03:59.018Z,10.50
2023-03-16T12:06:39.008Z,10.71
2023-03-16T12:08:55.754Z,10.88
2023-03-16T12:11:02.693Z,10.99
2023-03-16T12:13:12.858Z,11.18
2023-03-16T12:15:24.339Z,11.37
2023-03-16T12:17:31.115Z,11.34
2023-03-16T12:19:44.724Z,11.33
2023-03-16T12:21:49.263Z,11.44
2023-03-16T12:23:53.484Z,11.53
2023-03-16T12:25:59.130Z,11.53
2023-03-16T12:28:05.615Z,11.58
2023-03-16T12:30:35.800Z,11.47
2023-03-16T12:32:49.399Z,11.97
2023-03-16T12:35:02.867Z,12.11
2023-03-16T12:37:19.685Z,12.00
2023-03-16T12:39:32.617Z,12.04
2023-03-16T12:41:59.154Z,12.05
2023-03-16T12:44:04.148Z,12.03
2023-03-16T12:46:18.485Z,12.27
2023-03-16T12:48:29.824Z,12.25
2023-03-16T12:50:31.764Z,12.21
2023-03-16T12:52:42.092Z,12.25
2023-03-16T12:54:54.821Z,12.18
2023-03-16T12:57:06.958Z,12.22
2023-03-16T12:59:16.882Z,12.30
2023-03-16T13:01:24.944Z,12.22
2023-03-16T13:03:28.412Z,12.09
2023-03-16T13:05:36.276Z,12.32
2023-03-16T13:07:46.434Z,12.31
2023-03-16T13:09:52.779Z,12.11
2023-03-16T13:11:54.309Z,12.08
2023-03-16T13:14:01.865Z,12.22
2023-03-16T13:16:10.954Z,12.32
2023-03-16T13:18:15.095Z,12.20
2023-03-16T13:20:35.022Z,12.19
2023-03-16T13:22:50.826Z,12.28
2023-03-16T13:25:14.270Z,12.17
2023-03-16T13:27:44.514Z,12.24
2023-03-16T13:29:56.621Z,12.24
2023-03-16T13:32:01.724Z,12.43
2023-03-16T13:34:06.697Z,12.61
2023-03-16T13:36:10.357Z,12.70
2023-03-16T13:38:16.476Z,12.67
2023-03-16T13:40:24.565Z,12.88
2023-03-16T13:42:30.003Z,12.94
2023-03-16T13:44:32.080Z,12.88
2023-03-16T13:46:33.689Z,12.64
2023-03-16T13:48:37.188Z,12.83
2023-03-16T13:50:41.254Z,12.94
2023-03-16T13:52:44.181Z,12.96
2023-03-16T13:54:45.607Z,12.98
2023-03-16T13:56:47.355Z,13.00
2023-03-16T13:58:51.724Z,13.09
2023-03-16T14:00:58.691Z,13.04
2023-03-16T14:03:09.191Z,12.94
2023-03-16T14:05:33.334Z,12.94
2023-03-16T14:07:38.460Z,13.17
2023-03-16T14:09:40.007Z,13.12
2023-03-16T14:11:42.806Z,13.10
2023-03-16T14:13:52.804Z,13.10
2023-03-16T14:15:56.440Z,13.03
2023-03-16T14:18:21.196Z,13.37
2023-03-16T14:20:25.898Z,13.54
2023-03-16T14:22:39.581Z,13.60
2023-03-16T14:24:41.596Z,13.57
2023-03-16T14:26:45.961Z,13.64
2023-03-16T14:29:01.898Z,13.77
2023-03-16T14:31:10.010Z,13.91
2023-03-16T14:33:28.613Z,13.86
2023-03-16T14:35:32.445Z,13.92
2023-03-16T14:37:35.722Z,13.94
2023-03-16T14:39:38.263Z,13.88
2023-03-16T14:41:40.044Z,14.17
2023-03-16T14:44:17.371Z,14.21
2023-03-16T14:46:30.404Z,14.20
2023-03-16T14:48:32.684Z,14.32
2023-03-16T14:50:34.780Z,14.19
2023-03-16T14:52:36.514Z,14.47
2023-03-16T14:54:37.902Z,14.48
2023-03-16T14:56:39.274Z,14.51
2023-03-16T14:58:41.219Z,14.57
2023-03-16T15:00:52.644Z,14.73
2023-03-16T15:03:06.448Z,14.66
2023-03-16T15:05:09.526Z,14.54
2023-03-16T15:07:29.585Z,14.61
2023-03-16T15:09:36.463Z,14.69
2023-03-16T15:11:38.350Z,15.27
2023-03-16T15:13:39.755Z,17.36
2023-03-16T15:15:42.499Z,19.54
2023-03-16T15:17:44.439Z,21.14
2023-03-16T15:19:45.904Z,21.18
2023-03-16T15:21:47.291Z,20.75
2023-03-16T15:23:49.017Z,22.17
2023-03-16T15:25:52.708Z,22.11
2023-03-16T15:27:54.656Z,21.38
2023-03-16T15:29:56.609Z,20.65
2023-03-16T15:31:58.023Z,21.37
2023-03-16T15:33:59.404Z,21.69
2023-03-16T15:36:06.983Z,21.85
2023-03-16T15:38:33.371Z,19.82
2023-03-16T15:40:35.788Z,18.95
2023-03-16T15:42:37.177Z,19.79
2023-03-16T15:44:38.793Z,21.02
2023-03-16T15:46:40.223Z,22.29
2023-03-16T15:48:41.747Z,23.77
2023-03-16T15:50:51.026Z,23.60
2023-03-16T15:52:59.915Z,23.22
2023-03-16T15:55:07.604Z,21.36
2023-03-16T15:57:10.659Z,22.77
2023-03-16T15:59:17.027Z,23.84
2023-03-16T16:01:26.243Z,24.84
2023-03-16T16:03:27.734Z,25.03
2023-03-16T16:05:30.855Z,24.62
2023-03-16T16:07:32.258Z,24.41
2023-03-16T16:09:37.621Z,22.37
2023-03-16T16:11:41.156Z,21.27
2023-03-16T16:13:45.178Z,19.97
2023-03-16T16:15:47.163Z,19.08
2023-03-16T16:18:13.271Z,18.36
2023-03-16T16:20:27.365Z,17.49
2023-03-16T16:22:28.864Z,16.53
2023-03-16T16:24:30.274Z,16.67
2023-03-16T16:26:49.835Z,16.52
2023-03-16T16:28:53.003Z,16.09
2023-03-16T16:30:55.842Z,15.79
2023-03-16T16:32:58.908Z,15.25
2023-03-16T16:35:04.582Z,15.19
2023-03-16T16:37:06.500Z,14.97
2023-03-16T16:39:07.998Z,14.88
2023-03-16T16:41:10.416Z,14.44
2023-03-16T16:43:24.419Z,14.37
2023-03-16T16:45:26.099Z,14.27
2023-03-16T16:47:27.489Z,14.03
2023-03-16T16:49:30.938Z,13.95
2023-03-16T16:51:33.159Z,13.87
2023-03-16T16:53:35.380Z,13.57
2023-03-16T16:55:37.269Z,13.41
2023-03-16T16:57:39.133Z,13.15
2023-03-16T16:59:41.851Z,12.98
2023-03-16T17:01:43.310Z,12.62
2023-03-16T17:03:44.800Z,12.52
2023-03-16T17:05:46.224Z,12.31
2023-03-16T17:07:48.169Z,12.11
2023-03-16T17:09:50.761Z,11.88
2023-03-16T17:11:54.085Z,11.71
2023-03-16T17:13:58.245Z,11.57
2023-03-16T17:16:00.130Z,11.26
2023-03-16T17:18:05.015Z,11.28
2023-03-16T17:20:15.299Z,11.08
2023-03-16T17:22:25.111Z,10.96
2023-03-16T17:24:26.791Z,10.65
2023-03-16T17:26:31.591Z,10.60
2023-03-16T17:28:38.682Z,10.53
2023-03-16T17:30:40.209Z,10.44
2023-03-16T17:32:41.675Z,10.33
2023-03-16T17:34:43.494Z,10.15
2023-03-16T17:36:46.753Z,10.00
2023-03-16T17:38:48.314Z,9.94
2023-03-16T17:40:51.686Z,9.83
2023-03-16T17:42:55.895Z,9.70
2023-03-16T17:44:58.041Z,9.56
2023-03-16T17:46:59.509Z,9.51
2023-03-16T17:49:01.933Z,9.40
2023-03-16T17:51:03.515Z,9.28
2023-03-16T17:53:04.870Z,9.16
2023-03-16T17:55:06.891Z,9.17
2023-03-16T17:57:17.807Z,9.07
2023-03-16T17:59:21.130Z,9.09
2023-03-16T18:01:33.418Z,8.98
2023-03-16T18:03:36.047Z,8.83
2023-03-16T18:05:38.099Z,8.80
2023-03-16T18:07:39.789Z,8.67
2023-03-16T18:09:44.893Z,8.68
2023-03-16T18:11:49.926Z,8.67
2023-03-16T18:13:51.869Z,8.73
2023-03-16T18:15:55.807Z,8.56
2023-03-16T18:17:58.382Z,8.54
2023-03-16T18:20:00.323Z,8.53
2023-03-16T18:22:01.706Z,8.45
2023-03-16T18:24:03.191Z,8.36
2023-03-16T18:26:06.259Z,8.35
2023-03-16T18:28:09.756Z,8.26
2023-03-16T18:30:11.579Z,8.23
2023-03-16T18:32:21.571Z,8.23
2023-03-16T18:34:27.722Z,8.18
2023-03-16T18:36:32.584Z,8.08
2023-03-16T18:38:36.939Z,8.07
2023-03-16T18:40:38.611Z,8.15
2023-03-16T18:42:40.003Z,7.99
2023-03-16T18:44:41.393Z,8.06
2023-03-16T18:46:44.569Z,8.08
2023-03-16T18:48:45.966Z,7.95
2023-03-16T18:50:47.975Z,7.97
2023-03-16T18:52:50.332Z,7.90
2023-03-16T18:54:53.038Z,7.93
2023-03-16T18:56:54.762Z,7.82
2023-03-16T18:58:56.642Z,7.88
2023-03-16T19:01:01.689Z,7.85
2023-03-16T19:03:03.667Z,7.84
2023-03-16T19:05:11.095Z,7.74
2023-03-16T19:07:24.505Z,7.65
2023-03-16T19:09:28.891Z,7.64
2023-03-16T19:11:30.353Z,7.71
2023-03-16T19:13:31.737Z,7.72
2023-03-16T19:15:35.986Z,7.72
2023-03-16T19:17:37.446Z,7.66
2023-03-16T19:19:38.918Z,7.59
2023-03-16T19:21:41.257Z,7.57
2023-03-16T19:23:43.966Z,7.51
2023-03-16T19:25:45.981Z,7.51
2023-03-16T19:27:48.136Z,7.56
2023-03-16T19:29:52.233Z,7.49
2023-03-16T19:31:56.392Z,7.51
2023-03-16T19:33:58.460Z,7.38
2023-03-16T19:36:00.159Z,7.43
2023-03-16T19:38:01.787Z,7.42
2023-03-16T19:40:05.158Z,7.30
2023-03-16T19:42:15.055Z,7.30
2023-03-16T19:44:19.926Z,7.26
2023-03-16T19:46:28.941Z,7.36
2023-03-16T19:48:34.214Z,7.34
2023-03-16T19:50:35.936Z,7.29
2023-03-16T19:52:37.315Z,7.21
2023-03-16T19:54:40.340Z,7.21
2023-03-16T19:56:42.389Z,7.25
2023-03-16T19:58:47.362Z,7.23
2023-03-16T20:00:49.823Z,7.26
2023-03-16T20:02:55.155Z,7.27
2023-03-16T20:04:57.237Z,7.33
2023-03-16T20:06:58.808Z,7.35
2023-03-16T20:09:00.180Z,7.33
2023-03-16T20:11:08.579Z,7.42
2023-03-16T20:13:10.855Z,7.47
2023-03-16T20:15:22.160Z,7.45
2023-03-16T20:17:26.138Z,7.39
2023-03-16T20:19:28.490Z,7.34
2023-03-16T20:21:29.892Z,7.45
2023-03-16T20:23:31.728Z,7.49
2023-03-16T20:25:34.603Z,7.47
2023-03-16T20:27:36.524Z,7.50
2023-03-16T20:29:38.242Z,7.43
2023-03-16T20:31:39.772Z,7.49
2023-03-16T20:33:41.412Z,7.42
2023-03-16T20:35:42.802Z,7.39
2023-03-16T20:37:44.817Z,7.41
2023-03-16T20:39:46.268Z,7.40
2023-03-16T20:41:47.984Z,7.42
2023-03-16T20:43:49.397Z,7.40
2023-03-16T20:45:52.721Z,7.31
2023-03-16T20:47:54.766Z,7.33
2023-03-16T20:49:59.136Z,7.33
2023-03-16T20:52:00.868Z,7.43
2023-03-16T20:54:02.423Z,7.38
2023-03-16T20:56:04.237Z,7.46
2023-03-16T20:58:18.098Z,7.48
2023-03-16T21:00:26.493Z,7.33
2023-03-16T21:02:35.649Z,7.34
2023-03-16T21:04:37.142Z,7.33
2023-03-16T21:06:38.637Z,7.24
2023-03-16T21:08:40.015Z,7.22
2023-03-16T21:10:46.166Z,7.28
2023-03-16T21:12:51.949Z,7.38
2023-03-16T21:14:53.881Z,7.26
2023-03-16T21:16:55.592Z,7.19
2023-03-16T21:18:57.017Z,7.17
2023-03-16T21:20:58.962Z,7.27
2023-03-16T21:23:00.901Z,7.25
2023-03-16T21:25:02.456Z,7.26
2023-03-16T21:27:03.984Z,7.27
2023-03-16T21:29:10.852Z,7.29
2023-03-16T21:31:19.555Z,7.45
2023-03-16T21:33:40.150Z,7.30
2023-03-16T21:35:41.807Z,7.41
2023-03-16T21:37:43.752Z,7.34
2023-03-16T21:39:46.538Z,7.38
2023-03-16T21:41:50.485Z,7.30
2023-03-16T21:43:52.286Z,7.36
2023-03-16T21:45:55.063Z,7.35
2023-03-16T21:47:56.799Z,7.24
2023-03-16T21:49:59.253Z,7.20
2023-03-16T21:52:02.246Z,7.23
2023-03-16T21:54:04.044Z,7.29
2023-03-16T21:56:06.541Z,7.15
2023-03-16T21:58:09.380Z,7.17
2023-03-16T22:00:35.368Z,7.24
2023-03-16T22:02:37.663Z,7.18
2023-03-16T22:04:39.182Z,7.17
2023-03-16T22:06:42.398Z,7.15
2023-03-16T22:08:43.992Z,7.14
2023-03-16T22:10:45.801Z,7.14
2023-03-16T22:12:47.201Z,7.15
2023-03-16T22:14:48.712Z,7.15
2023-03-16T22:16:50.377Z,7.12
2023-03-16T22:18:56.283Z,7.11
2023-03-16T22:20:59.115Z,7.11
2023-03-16T22:23:01.302Z,7.14
2023-03-16T22:25:02.775Z,7.12
2023-03-16T22:27:04.386Z,7.14
2023-03-16T22:29:25.214Z,7.17
2023-03-16T22:31:33.533Z,7.13
2023-03-16T22:33:37.553Z,7.19
2023-03-16T22:35:39.501Z,7.17
2023-03-16T22:37:41.283Z,7.11
2023-03-16T22:39:42.898Z,7.13
2023-03-16T22:41:44.296Z,7.12
2023-03-16T22:43:45.836Z,7.11
2023-03-16T22:45:48.645Z,7.13
2023-03-16T22:47:51.153Z,7.11
2023-03-16T22:49:53.617Z,7.07
2023-03-16T22:51:57.447Z,7.11
2023-03-16T22:54:02.505Z,7.06
2023-03-16T22:56:05.389Z,7.13
2023-03-16T22:58:33.555Z,7.13
2023-03-16T23:00:35.343Z,7.12
2023-03-16T23:02:37.390Z,7.12
2023-03-16T23:04:38.951Z,7.10
2023-03-16T23:06:40.957Z,7.00
2023-03-16T23:08:42.438Z,6.99
2023-03-16T23:10:44.998Z,7.11
2023-03-16T23:14:47.976Z,7.13
2023-03-16T23:16:51.919Z,7.10
2023-03-16T23:18:53.900Z,7.10
2023-03-16T23:20:55.831Z,7.09
2023-03-16T23:22:57.405Z,7.02
2023-03-16T23:24:58.915Z,7.00
2023-03-16T23:27:01.171Z,6.91
2023-03-16T23:29:02.610Z,6.91
2023-03-16T23:31:04.169Z,6.94
2023-03-16T23:33:05.689Z,6.96
2023-03-16T23:35:16.697Z,6.90
2023-03-16T23:37:18.052Z,7.05
2023-03-16T23:39:19.633Z,7.03
2023-03-16T23:41:23.442Z,7.03
2023-03-16T23:43:24.904Z,7.06
2023-03-16T23:45:44.976Z,7.01
2023-03-16T23:47:48.710Z,7.02
2023-03-16T23:49:50.166Z,7.06
2023-03-16T23:51:52.783Z,7.05
2023-03-16T23:53:54.986Z,7.03
2023-03-16T23:55:56.795Z,7.01
2023-03-16T23:57:58.237Z,7.03
2023-03-16T23:59:59.619Z,7.04
